sensor_id;sensor_type;location;lat;lon;timestamp;P1;durP1;ratioP1;P2;durP2;ratioP2
3271;SDS011;1648;50.022;8.424;2023-12-20T00:03:53;7.33;;;4.57;;
3271;SDS011;1648;50.022;8.424;2023-12-20T00:18:56;5.93;;;4.30;;
3271;SDS011;1648;50.022;8.424;2023-12-20T00:34:00;6.27;;;4.80;;
3271;SDS011;1648;50.022;8.424;2023-12-20T00:49:04;5.87;;;4.23;;
3271;SDS011;1648;50.022;8.424;2023-12-20T01:04:07;4.57;;;4.17;;
3271;SDS011;1648;50.022;8.424;2023-12-20T01:19:11;4.53;;;3.73;;
3271;SDS011;1648;50.022;8.424;2023-12-20T01:34:14;4.30;;;3.90;;
3271;SDS011;1648;50.022;8.424;2023-12-20T01:49:17;4.83;;;3.80;;
3271;SDS011;1648;50.022;8.424;2023-12-20T02:04:21;3.53;;;2.87;;
3271;SDS011;1648;50.022;8.424;2023-12-20T02:19:24;4.67;;;3.50;;
3271;SDS011;1648;50.022;8.424;2023-12-20T02:34:27;4.73;;;3.80;;
3271;SDS011;1648;50.022;8.424;2023-12-20T02:49:31;3.23;;;3.03;;
3271;SDS011;1648;50.022;8.424;2023-12-20T03:04:34;4.70;;;2.67;;
3271;SDS011;1648;50.022;8.424;2023-12-20T03:19:37;4.43;;;2.90;;
3271;SDS011;1648;50.022;8.424;2023-12-20T03:34:41;2.77;;;2.57;;
3271;SDS011;1648;50.022;8.424;2023-12-20T03:49:44;1.90;;;1.80;;
3271;SDS011;1648;50.022;8.424;2023-12-20T04:04:48;1.20;;;1.20;;
3271;SDS011;1648;50.022;8.424;2023-12-20T04:19:51;1.83;;;1.73;;
3271;SDS011;1648;50.022;8.424;2023-12-20T04:34:55;1.67;;;1.57;;
3271;SDS011;1648;50.022;8.424;2023-12-20T04:49:58;1.87;;;1.77;;
3271;SDS011;1648;50.022;8.424;2023-12-20T05:05:01;2.20;;;1.30;;
3271;SDS011;1648;50.022;8.424;2023-12-20T05:20:07;2.00;;;1.20;;
3271;SDS011;1648;50.022;8.424;2023-12-20T05:35:57;5.53;;;2.00;;
3271;SDS011;1648;50.022;8.424;2023-12-20T05:51:00;5.50;;;2.30;;
3271;SDS011;1648;50.022;8.424;2023-12-20T06:06:41;8.43;;;2.20;;
3271;SDS011;1648;50.022;8.424;2023-12-20T06:21:47;3.13;;;1.70;;
3271;SDS011;1648;50.022;8.424;2023-12-20T06:37:15;2.53;;;2.33;;
3271;SDS011;1648;50.022;8.424;2023-12-20T06:53:07;3.50;;;2.10;;
3271;SDS011;1648;50.022;8.424;2023-12-20T07:08:56;4.73;;;2.47;;
3271;SDS011;1648;50.022;8.424;2023-12-20T07:25:16;3.40;;;1.97;;
3271;SDS011;1648;50.022;8.424;2023-12-20T07:41:20;2.43;;;2.00;;
3271;SDS011;1648;50.022;8.424;2023-12-20T07:57:29;7.70;;;2.20;;
3271;SDS011;1648;50.022;8.424;2023-12-20T08:12:33;5.60;;;1.77;;
3271;SDS011;1648;50.022;8.424;2023-12-20T08:28:18;5.60;;;1.90;;
3271;SDS011;1648;50.022;8.424;2023-12-20T08:44:08;2.23;;;2.03;;
3271;SDS011;1648;50.022;8.424;2023-12-20T08:59:57;11.40;;;2.07;;
3271;SDS011;1648;50.022;8.424;2023-12-20T09:15:24;7.57;;;1.97;;
3271;SDS011;1648;50.022;8.424;2023-12-20T09:30:28;4.87;;;1.90;;
3271;SDS011;1648;50.022;8.424;2023-12-20T09:46:17;6.23;;;2.70;;
3271;SDS011;1648;50.022;8.424;2023-12-20T10:01:22;7.67;;;2.43;;
3271;SDS011;1648;50.022;8.424;2023-12-20T10:16:26;7.90;;;2.60;;
3271;SDS011;1648;50.022;8.424;2023-12-20T10:31:30;4.20;;;2.10;;
3271;SDS011;1648;50.022;8.424;2023-12-20T10:46:34;7.10;;;2.60;;
3271;SDS011;1648;50.022;8.424;2023-12-20T11:01:42;9.30;;;2.40;;
3271;SDS011;1648;50.022;8.424;2023-12-20T11:16:47;7.57;;;1.83;;
3271;SDS011;1648;50.022;8.424;2023-12-20T11:31:57;11.60;;;1.80;;
3271;SDS011;1648;50.022;8.424;2023-12-20T11:47:01;6.10;;;2.77;;
3271;SDS011;1648;50.022;8.424;2023-12-20T12:02:05;11.63;;;3.07;;
3271;SDS011;1648;50.022;8.424;2023-12-20T12:17:11;3.73;;;2.03;;
3271;SDS011;1648;50.022;8.424;2023-12-20T12:32:14;5.90;;;1.90;;
3271;SDS011;1648;50.022;8.424;2023-12-20T12:47:18;3.90;;;2.00;;
3271;SDS011;1648;50.022;8.424;2023-12-20T13:02:21;8.40;;;2.13;;
3271;SDS011;1648;50.022;8.424;2023-12-20T13:17:25;7.23;;;2.50;;
3271;SDS011;1648;50.022;8.424;2023-12-20T13:32:32;7.03;;;1.93;;
3271;SDS011;1648;50.022;8.424;2023-12-20T13:47:41;4.30;;;1.87;;
3271;SDS011;1648;50.022;8.424;2023-12-20T14:02:45;3.50;;;1.97;;
3271;SDS011;1648;50.022;8.424;2023-12-20T14:17:48;5.10;;;1.77;;
3271;SDS011;1648;50.022;8.424;2023-12-20T14:32:53;7.10;;;1.40;;
3271;SDS011;1648;50.022;8.424;2023-12-20T14:47:56;6.13;;;1.67;;
3271;SDS011;1648;50.022;8.424;2023-12-20T15:02:59;3.90;;;1.50;;
3271;SDS011;1648;50.022;8.424;2023-12-20T15:18:03;3.50;;;1.87;;
3271;SDS011;1648;50.022;8.424;2023-12-20T15:33:09;4.93;;;2.33;;
3271;SDS011;1648;50.022;8.424;2023-12-20T15:48:16;4.77;;;1.50;;
3271;SDS011;1648;50.022;8.424;2023-12-20T16:03:20;15.37;;;1.90;;
3271;SDS011;1648;50.022;8.424;2023-12-20T16:18:44;6.67;;;1.80;;
3271;SDS011;1648;50.022;8.424;2023-12-20T16:33:51;7.07;;;2.27;;
3271;SDS011;1648;50.022;8.424;2023-12-20T16:49:09;6.13;;;2.20;;
3271;SDS011;1648;50.022;8.424;2023-12-20T17:05:02;18.70;;;3.83;;
3271;SDS011;1648;50.022;8.424;2023-12-20T17:20:23;5.90;;;2.80;;
3271;SDS011;1648;50.022;8.424;2023-12-20T17:36:30;8.00;;;2.60;;
3271;SDS011;1648;50.022;8.424;2023-12-20T17:52:21;10.90;;;3.47;;
3271;SDS011;1648;50.022;8.424;2023-12-20T18:09:03;8.23;;;3.57;;
3271;SDS011;1648;50.022;8.424;2023-12-20T18:24:52;10.67;;;2.93;;
3271;SDS011;1648;50.022;8.424;2023-12-20T18:39:56;8.20;;;4.03;;
3271;SDS011;1648;50.022;8.424;2023-12-20T18:55:00;6.27;;;2.57;;
3271;SDS011;1648;50.022;8.424;2023-12-20T19:10:08;7.00;;;3.23;;
3271;SDS011;1648;50.022;8.424;2023-12-20T19:42:24;7.10;;;4.47;;
3271;SDS011;1648;50.022;8.424;2023-12-20T19:57:28;8.90;;;3.87;;
3271;SDS011;1648;50.022;8.424;2023-12-20T20:12:36;8.60;;;4.17;;
3271;SDS011;1648;50.022;8.424;2023-12-20T20:27:43;4.50;;;3.00;;
3271;SDS011;1648;50.022;8.424;2023-12-20T20:42:48;6.27;;;3.50;;
3271;SDS011;1648;50.022;8.424;2023-12-20T20:57:51;5.23;;;3.53;;
3271;SDS011;1648;50.022;8.424;2023-12-20T21:13:16;6.13;;;3.73;;
3271;SDS011;1648;50.022;8.424;2023-12-20T21:28:36;8.57;;;3.50;;
3271;SDS011;1648;50.022;8.424;2023-12-20T21:45:19;3.27;;;2.73;;
3271;SDS011;1648;50.022;8.424;2023-12-20T22:00:52;5.70;;;2.67;;
3271;SDS011;1648;50.022;8.424;2023-12-20T22:17:15;3.30;;;2.33;;
3271;SDS011;1648;50.022;8.424;2023-12-20T22:32:20;4.33;;;2.43;;
3271;SDS011;1648;50.022;8.424;2023-12-20T23:05:15;2.30;;;1.93;;
3271;SDS011;1648;50.022;8.424;2023-12-20T23:20:53;1.90;;;1.80;;
3271;SDS011;1648;50.022;8.424;2023-12-20T23:36:11;1.37;;;1.37;;
3271;SDS011;1648;50.022;8.424;2023-12-20T23:51:19;1.50;;;1.33;;
